sensor_id;sensor_type;location;lat;lon;timestamp;P1;durP1;ratioP1;P2;durP2;ratioP2
75486;SDS011;65009;44.762;21.516;2022-12-15T00:02:24;17.23;;;10.20;;
75486;SDS011;65009;44.762;21.516;2022-12-15T00:05:09;13.50;;;8.70;;
75486;SDS011;65009;44.762;21.516;2022-12-15T00:07:53;15.77;;;10.10;;
75486;SDS011;65009;44.762;21.516;2022-12-15T00:10:38;19.00;;;10.43;;
75486;SDS011;65009;44.762;21.516;2022-12-15T00:13:23;23.47;;;11.67;;
75486;SDS011;65009;44.762;21.516;2022-12-15T00:16:08;18.77;;;11.10;;
75486;SDS011;65009;44.762;21.516;2022-12-15T00:18:52;29.60;;;13.37;;
75486;SDS011;65009;44.762;21.516;2022-12-15T00:21:37;24.80;;;10.77;;
75486;SDS011;65009;44.762;21.516;2022-12-15T00:24:22;25.20;;;11.63;;
75486;SDS011;65009;44.762;21.516;2022-12-15T00:27:06;19.30;;;9.63;;
75486;SDS011;65009;44.762;21.516;2022-12-15T00:29:51;13.53;;;8.50;;
75486;SDS011;65009;44.762;21.516;2022-12-15T00:32:35;11.93;;;7.60;;
75486;SDS011;65009;44.762;21.516;2022-12-15T00:35:20;12.43;;;7.57;;
75486;SDS011;65009;44.762;21.516;2022-12-15T00:38:08;20.90;;;10.50;;
75486;SDS011;65009;44.762;21.516;2022-12-15T00:40:53;14.03;;;8.77;;
75486;SDS011;65009;44.762;21.516;2022-12-15T00:43:29;11.80;;;6.80;;
75486;SDS011;65009;44.762;21.516;2022-12-15T00:45:56;10.43;;;7.20;;
75486;SDS011;65009;44.762;21.516;2022-12-15T00:48:40;11.50;;;6.93;;
75486;SDS011;65009;44.762;21.516;2022-12-15T00:51:07;10.50;;;6.70;;
75486;SDS011;65009;44.762;21.516;2022-12-15T00:53:33;11.27;;;7.03;;
75486;SDS011;65009;44.762;21.516;2022-12-15T00:56:18;14.20;;;7.67;;
75486;SDS011;65009;44.762;21.516;2022-12-15T00:59:03;10.17;;;6.57;;
75486;SDS011;65009;44.762;21.516;2022-12-15T01:01:47;14.97;;;8.13;;
75486;SDS011;65009;44.762;21.516;2022-12-15T01:04:32;15.10;;;8.50;;
75486;SDS011;65009;44.762;21.516;2022-12-15T01:07:17;16.87;;;8.67;;
75486;SDS011;65009;44.762;21.516;2022-12-15T01:10:02;10.23;;;6.80;;
75486;SDS011;65009;44.762;21.516;2022-12-15T01:12:46;10.00;;;6.23;;
75486;SDS011;65009;44.762;21.516;2022-12-15T01:15:31;10.10;;;6.37;;
75486;SDS011;65009;44.762;21.516;2022-12-15T01:18:15;18.27;;;9.17;;
75486;SDS011;65009;44.762;21.516;2022-12-15T01:21:01;10.37;;;5.97;;
75486;SDS011;65009;44.762;21.516;2022-12-15T01:23:27;6.53;;;4.90;;
75486;SDS011;65009;44.762;21.516;2022-12-15T01:25:54;6.63;;;5.10;;
75486;SDS011;65009;44.762;21.516;2022-12-15T01:28:20;9.03;;;5.57;;
75486;SDS011;65009;44.762;21.516;2022-12-15T01:30:46;6.93;;;4.80;;
75486;SDS011;65009;44.762;21.516;2022-12-15T01:33:13;8.50;;;5.33;;
75486;SDS011;65009;44.762;21.516;2022-12-15T01:35:40;7.27;;;5.20;;
75486;SDS011;65009;44.762;21.516;2022-12-15T01:38:06;14.20;;;7.87;;
75486;SDS011;65009;44.762;21.516;2022-12-15T01:40:32;10.97;;;6.37;;
75486;SDS011;65009;44.762;21.516;2022-12-15T01:45:56;13.03;;;6.77;;
75486;SDS011;65009;44.762;21.516;2022-12-15T01:51:11;11.07;;;6.93;;
75486;SDS011;65009;44.762;21.516;2022-12-15T01:53:39;12.57;;;5.60;;
75486;SDS011;65009;44.762;21.516;2022-12-15T01:56:07;11.17;;;6.27;;
75486;SDS011;65009;44.762;21.516;2022-12-15T01:58:34;11.77;;;5.90;;
75486;SDS011;65009;44.762;21.516;2022-12-15T02:01:01;12.57;;;5.77;;
75486;SDS011;65009;44.762;21.516;2022-12-15T02:03:28;13.17;;;6.93;;
75486;SDS011;65009;44.762;21.516;2022-12-15T02:05:54;12.27;;;6.50;;
75486;SDS011;65009;44.762;21.516;2022-12-15T02:08:21;6.40;;;4.33;;
75486;SDS011;65009;44.762;21.516;2022-12-15T02:11:37;8.00;;;4.37;;
75486;SDS011;65009;44.762;21.516;2022-12-15T02:13:39;5.87;;;3.83;;
75486;SDS011;65009;44.762;21.516;2022-12-15T02:16:12;9.23;;;5.60;;
75486;SDS011;65009;44.762;21.516;2022-12-15T02:19:09;7.43;;;4.70;;
75486;SDS011;65009;44.762;21.516;2022-12-15T02:21:31;6.57;;;3.93;;
75486;SDS011;65009;44.762;21.516;2022-12-15T02:27:11;6.43;;;4.10;;
75486;SDS011;65009;44.762;21.516;2022-12-15T02:32:10;5.57;;;3.73;;
75486;SDS011;65009;44.762;21.516;2022-12-15T02:34:45;6.97;;;4.70;;
75486;SDS011;65009;44.762;21.516;2022-12-15T02:39:47;3.60;;;2.97;;
75486;SDS011;65009;44.762;21.516;2022-12-15T02:42:13;4.30;;;2.97;;
75486;SDS011;65009;44.762;21.516;2022-12-15T02:57:40;3.33;;;2.80;;
75486;SDS011;65009;44.762;21.516;2022-12-15T03:00:09;5.37;;;3.30;;
75486;SDS011;65009;44.762;21.516;2022-12-15T03:02:37;4.20;;;3.33;;
75486;SDS011;65009;44.762;21.516;2022-12-15T03:05:04;3.93;;;3.03;;
75486;SDS011;65009;44.762;21.516;2022-12-15T03:07:31;4.60;;;2.70;;
75486;SDS011;65009;44.762;21.516;2022-12-15T03:09:58;3.50;;;2.77;;
75486;SDS011;65009;44.762;21.516;2022-12-15T03:12:24;9.20;;;7.63;;
75486;SDS011;65009;44.762;21.516;2022-12-15T03:14:51;14.47;;;10.20;;
75486;SDS011;65009;44.762;21.516;2022-12-15T03:17:17;21.70;;;17.17;;
75486;SDS011;65009;44.762;21.516;2022-12-15T03:19:44;11.03;;;9.70;;
75486;SDS011;65009;44.762;21.516;2022-12-15T03:22:10;8.30;;;5.53;;
75486;SDS011;65009;44.762;21.516;2022-12-15T03:24:36;4.83;;;3.97;;
75486;SDS011;65009;44.762;21.516;2022-12-15T03:27:03;7.00;;;4.50;;
75486;SDS011;65009;44.762;21.516;2022-12-15T03:29:29;4.90;;;3.90;;
75486;SDS011;65009;44.762;21.516;2022-12-15T03:31:55;4.40;;;3.40;;
75486;SDS011;65009;44.762;21.516;2022-12-15T03:34:21;4.73;;;3.33;;
75486;SDS011;65009;44.762;21.516;2022-12-15T03:36:47;6.40;;;3.43;;
75486;SDS011;65009;44.762;21.516;2022-12-15T03:39:13;4.73;;;3.80;;
75486;SDS011;65009;44.762;21.516;2022-12-15T03:41:39;5.13;;;3.87;;
75486;SDS011;65009;44.762;21.516;2022-12-15T03:44:06;5.27;;;3.93;;
75486;SDS011;65009;44.762;21.516;2022-12-15T03:46:32;4.73;;;3.80;;
75486;SDS011;65009;44.762;21.516;2022-12-15T03:48:58;5.13;;;3.73;;
75486;SDS011;65009;44.762;21.516;2022-12-15T03:51:24;7.23;;;4.63;;
75486;SDS011;65009;44.762;21.516;2022-12-15T03:53:50;5.87;;;3.77;;
75486;SDS011;65009;44.762;21.516;2022-12-15T03:56:17;5.80;;;4.07;;
75486;SDS011;65009;44.762;21.516;2022-12-15T03:58:44;5.50;;;4.23;;
75486;SDS011;65009;44.762;21.516;2022-12-15T04:01:12;9.47;;;5.20;;
75486;SDS011;65009;44.762;21.516;2022-12-15T04:03:38;8.33;;;5.77;;
75486;SDS011;65009;44.762;21.516;2022-12-15T04:06:04;8.33;;;5.03;;
75486;SDS011;65009;44.762;21.516;2022-12-15T04:08:30;7.57;;;4.87;;
75486;SDS011;65009;44.762;21.516;2022-12-15T04:10:56;5.13;;;4.00;;
75486;SDS011;65009;44.762;21.516;2022-12-15T04:13:23;8.70;;;5.83;;
75486;SDS011;65009;44.762;21.516;2022-12-15T04:15:49;5.90;;;3.87;;
75486;SDS011;65009;44.762;21.516;2022-12-15T04:18:15;6.97;;;4.87;;
75486;SDS011;65009;44.762;21.516;2022-12-15T04:20:41;8.83;;;4.93;;
75486;SDS011;65009;44.762;21.516;2022-12-15T04:23:07;10.63;;;6.73;;
75486;SDS011;65009;44.762;21.516;2022-12-15T04:25:34;7.13;;;5.23;;
75486;SDS011;65009;44.762;21.516;2022-12-15T04:28:18;8.20;;;5.50;;
75486;SDS011;65009;44.762;21.516;2022-12-15T04:31:08;4.73;;;3.70;;
75486;SDS011;65009;44.762;21.516;2022-12-15T04:33:54;9.23;;;4.70;;
75486;SDS011;65009;44.762;21.516;2022-12-15T04:36:39;5.50;;;3.83;;
75486;SDS011;65009;44.762;21.516;2022-12-15T04:39:26;6.43;;;4.13;;
75486;SDS011;65009;44.762;21.516;2022-12-15T04:42:11;4.47;;;3.70;;
75486;SDS011;65009;44.762;21.516;2022-12-15T04:44:57;8.50;;;5.30;;
75486;SDS011;65009;44.762;21.516;2022-12-15T04:47:43;6.13;;;4.87;;
75486;SDS011;65009;44.762;21.516;2022-12-15T04:50:27;5.53;;;4.30;;
75486;SDS011;65009;44.762;21.516;2022-12-15T04:53:13;6.17;;;4.83;;
75486;SDS011;65009;44.762;21.516;2022-12-15T04:55:58;11.70;;;6.73;;
75486;SDS011;65009;44.762;21.516;2022-12-15T04:58:43;8.80;;;5.77;;
75486;SDS011;65009;44.762;21.516;2022-12-15T05:01:28;9.27;;;6.07;;
75486;SDS011;65009;44.762;21.516;2022-12-15T05:04:13;8.60;;;5.93;;
75486;SDS011;65009;44.762;21.516;2022-12-15T05:06:58;11.37;;;7.07;;
75486;SDS011;65009;44.762;21.516;2022-12-15T05:09:42;9.97;;;6.80;;
75486;SDS011;65009;44.762;21.516;2022-12-15T05:12:27;9.87;;;6.00;;
75486;SDS011;65009;44.762;21.516;2022-12-15T05:15:12;7.37;;;6.13;;
75486;SDS011;65009;44.762;21.516;2022-12-15T05:17:57;8.43;;;5.90;;
75486;SDS011;65009;44.762;21.516;2022-12-15T05:20:41;9.73;;;7.27;;
75486;SDS011;65009;44.762;21.516;2022-12-15T05:23:26;11.63;;;9.07;;
75486;SDS011;65009;44.762;21.516;2022-12-15T05:26:10;8.70;;;6.43;;
75486;SDS011;65009;44.762;21.516;2022-12-15T05:28:55;11.90;;;7.47;;
75486;SDS011;65009;44.762;21.516;2022-12-15T05:31:40;10.63;;;8.23;;
75486;SDS011;65009;44.762;21.516;2022-12-15T05:34:40;10.27;;;7.73;;
75486;SDS011;65009;44.762;21.516;2022-12-15T05:37:06;15.87;;;9.90;;
75486;SDS011;65009;44.762;21.516;2022-12-15T05:39:32;13.00;;;9.00;;
75486;SDS011;65009;44.762;21.516;2022-12-15T05:41:59;11.07;;;7.90;;
75486;SDS011;65009;44.762;21.516;2022-12-15T05:44:25;14.10;;;8.60;;
75486;SDS011;65009;44.762;21.516;2022-12-15T05:46:52;10.40;;;7.47;;
75486;SDS011;65009;44.762;21.516;2022-12-15T05:49:19;15.90;;;9.37;;
75486;SDS011;65009;44.762;21.516;2022-12-15T05:51:47;36.63;;;17.23;;
75486;SDS011;65009;44.762;21.516;2022-12-15T05:54:17;69.17;;;24.20;;
75486;SDS011;65009;44.762;21.516;2022-12-15T05:56:44;47.70;;;20.03;;
75486;SDS011;65009;44.762;21.516;2022-12-15T05:59:10;69.63;;;27.60;;
75486;SDS011;65009;44.762;21.516;2022-12-15T06:01:36;72.43;;;27.63;;
75486;SDS011;65009;44.762;21.516;2022-12-15T06:04:03;53.97;;;23.00;;
75486;SDS011;65009;44.762;21.516;2022-12-15T06:06:29;85.53;;;36.10;;
75486;SDS011;65009;44.762;21.516;2022-12-15T06:08:55;78.13;;;35.87;;
75486;SDS011;65009;44.762;21.516;2022-12-15T06:11:21;62.10;;;33.83;;
75486;SDS011;65009;44.762;21.516;2022-12-15T06:13:47;36.90;;;21.63;;
75486;SDS011;65009;44.762;21.516;2022-12-15T06:16:18;18.20;;;12.60;;
75486;SDS011;65009;44.762;21.516;2022-12-15T06:18:48;20.37;;;11.67;;
75486;SDS011;65009;44.762;21.516;2022-12-15T06:21:16;20.60;;;11.60;;
75486;SDS011;65009;44.762;21.516;2022-12-15T06:23:43;15.80;;;10.97;;
75486;SDS011;65009;44.762;21.516;2022-12-15T06:26:14;22.23;;;13.13;;
75486;SDS011;65009;44.762;21.516;2022-12-15T06:28:40;30.37;;;19.33;;
75486;SDS011;65009;44.762;21.516;2022-12-15T06:31:07;38.23;;;26.30;;
75486;SDS011;65009;44.762;21.516;2022-12-15T06:33:34;44.43;;;26.43;;
75486;SDS011;65009;44.762;21.516;2022-12-15T06:36:01;44.03;;;26.10;;
75486;SDS011;65009;44.762;21.516;2022-12-15T06:38:28;25.23;;;16.63;;
75486;SDS011;65009;44.762;21.516;2022-12-15T06:40:55;34.47;;;23.17;;
75486;SDS011;65009;44.762;21.516;2022-12-15T06:43:21;39.53;;;23.20;;
75486;SDS011;65009;44.762;21.516;2022-12-15T06:45:48;49.67;;;34.47;;
75486;SDS011;65009;44.762;21.516;2022-12-15T06:48:15;52.27;;;36.63;;
75486;SDS011;65009;44.762;21.516;2022-12-15T06:50:42;59.23;;;44.27;;
75486;SDS011;65009;44.762;21.516;2022-12-15T06:53:09;53.27;;;39.37;;
75486;SDS011;65009;44.762;21.516;2022-12-15T06:55:36;34.90;;;21.77;;
75486;SDS011;65009;44.762;21.516;2022-12-15T06:58:02;29.87;;;19.10;;
75486;SDS011;65009;44.762;21.516;2022-12-15T07:00:28;19.93;;;14.07;;
75486;SDS011;65009;44.762;21.516;2022-12-15T07:02:54;17.80;;;10.97;;
75486;SDS011;65009;44.762;21.516;2022-12-15T07:05:21;13.67;;;8.33;;
75486;SDS011;65009;44.762;21.516;2022-12-15T07:07:47;14.10;;;9.67;;
75486;SDS011;65009;44.762;21.516;2022-12-15T07:10:13;30.50;;;18.60;;
75486;SDS011;65009;44.762;21.516;2022-12-15T07:12:40;22.00;;;15.07;;
75486;SDS011;65009;44.762;21.516;2022-12-15T07:15:06;20.87;;;13.63;;
75486;SDS011;65009;44.762;21.516;2022-12-15T07:17:33;27.57;;;17.13;;
75486;SDS011;65009;44.762;21.516;2022-12-15T07:20:01;22.17;;;14.53;;
75486;SDS011;65009;44.762;21.516;2022-12-15T07:22:27;19.73;;;11.37;;
75486;SDS011;65009;44.762;21.516;2022-12-15T07:24:53;20.57;;;12.43;;
75486;SDS011;65009;44.762;21.516;2022-12-15T07:27:20;14.83;;;9.63;;
75486;SDS011;65009;44.762;21.516;2022-12-15T07:29:46;21.37;;;11.47;;
75486;SDS011;65009;44.762;21.516;2022-12-15T07:32:12;16.30;;;10.10;;
75486;SDS011;65009;44.762;21.516;2022-12-15T07:34:39;19.40;;;10.27;;
75486;SDS011;65009;44.762;21.516;2022-12-15T07:37:06;20.23;;;11.20;;
75486;SDS011;65009;44.762;21.516;2022-12-15T07:39:32;19.67;;;12.70;;
75486;SDS011;65009;44.762;21.516;2022-12-15T07:41:58;15.30;;;9.90;;
75486;SDS011;65009;44.762;21.516;2022-12-15T07:44:25;17.77;;;10.90;;
75486;SDS011;65009;44.762;21.516;2022-12-15T07:46:51;16.33;;;10.80;;
75486;SDS011;65009;44.762;21.516;2022-12-15T07:49:17;21.50;;;14.07;;
75486;SDS011;65009;44.762;21.516;2022-12-15T07:51:44;18.50;;;12.57;;
75486;SDS011;65009;44.762;21.516;2022-12-15T07:54:11;15.53;;;11.33;;
75486;SDS011;65009;44.762;21.516;2022-12-15T07:56:37;23.40;;;14.37;;
75486;SDS011;65009;44.762;21.516;2022-12-15T07:59:04;18.20;;;12.43;;
75486;SDS011;65009;44.762;21.516;2022-12-15T08:01:30;16.67;;;12.83;;
75486;SDS011;65009;44.762;21.516;2022-12-15T08:03:56;10.33;;;8.97;;
75486;SDS011;65009;44.762;21.516;2022-12-15T08:06:22;11.77;;;9.37;;
75486;SDS011;65009;44.762;21.516;2022-12-15T08:08:49;26.73;;;14.00;;
75486;SDS011;65009;44.762;21.516;2022-12-15T08:11:15;20.57;;;15.27;;
75486;SDS011;65009;44.762;21.516;2022-12-15T08:13:42;18.67;;;14.57;;
75486;SDS011;65009;44.762;21.516;2022-12-15T08:16:09;16.37;;;11.80;;
75486;SDS011;65009;44.762;21.516;2022-12-15T08:18:35;9.10;;;7.27;;
75486;SDS011;65009;44.762;21.516;2022-12-15T08:21:05;12.30;;;8.33;;
75486;SDS011;65009;44.762;21.516;2022-12-15T08:23:32;11.20;;;7.87;;
75486;SDS011;65009;44.762;21.516;2022-12-15T08:26:02;14.47;;;10.07;;
75486;SDS011;65009;44.762;21.516;2022-12-15T08:28:30;11.57;;;8.95;;
75486;SDS011;65009;44.762;21.516;2022-12-15T08:31:06;13.37;;;10.10;;
75486;SDS011;65009;44.762;21.516;2022-12-15T08:33:33;14.20;;;10.02;;
75486;SDS011;65009;44.762;21.516;2022-12-15T08:35:59;15.00;;;10.73;;
75486;SDS011;65009;44.762;21.516;2022-12-15T08:38:27;20.27;;;13.70;;
75486;SDS011;65009;44.762;21.516;2022-12-15T08:40:53;9.93;;;8.10;;
75486;SDS011;65009;44.762;21.516;2022-12-15T08:43:19;7.18;;;6.22;;
75486;SDS011;65009;44.762;21.516;2022-12-15T08:45:46;24.38;;;12.10;;
75486;SDS011;65009;44.762;21.516;2022-12-15T08:48:12;18.17;;;11.60;;
75486;SDS011;65009;44.762;21.516;2022-12-15T08:50:41;23.75;;;14.60;;
75486;SDS011;65009;44.762;21.516;2022-12-15T08:53:08;15.82;;;11.23;;
75486;SDS011;65009;44.762;21.516;2022-12-15T08:55:35;10.25;;;7.82;;
75486;SDS011;65009;44.762;21.516;2022-12-15T08:58:01;6.68;;;5.97;;
75486;SDS011;65009;44.762;21.516;2022-12-15T09:00:27;7.85;;;7.00;;
75486;SDS011;65009;44.762;21.516;2022-12-15T09:02:53;10.90;;;9.52;;
75486;SDS011;65009;44.762;21.516;2022-12-15T09:05:19;11.27;;;7.50;;
75486;SDS011;65009;44.762;21.516;2022-12-15T09:07:45;11.48;;;8.30;;
75486;SDS011;65009;44.762;21.516;2022-12-15T09:10:12;17.50;;;10.65;;
75486;SDS011;65009;44.762;21.516;2022-12-15T09:12:38;13.57;;;9.00;;
75486;SDS011;65009;44.762;21.516;2022-12-15T09:15:04;21.35;;;14.90;;
75486;SDS011;65009;44.762;21.516;2022-12-15T09:17:30;22.90;;;13.43;;
75486;SDS011;65009;44.762;21.516;2022-12-15T09:19:57;15.82;;;11.45;;
75486;SDS011;65009;44.762;21.516;2022-12-15T09:22:23;32.72;;;18.88;;
75486;SDS011;65009;44.762;21.516;2022-12-15T09:24:49;8.65;;;7.53;;
75486;SDS011;65009;44.762;21.516;2022-12-15T09:27:15;8.20;;;6.03;;
75486;SDS011;65009;44.762;21.516;2022-12-15T09:29:41;9.57;;;6.75;;
75486;SDS011;65009;44.762;21.516;2022-12-15T09:32:07;35.03;;;23.73;;
75486;SDS011;65009;44.762;21.516;2022-12-15T09:34:33;26.73;;;17.73;;
75486;SDS011;65009;44.762;21.516;2022-12-15T09:36:59;11.07;;;8.50;;
75486;SDS011;65009;44.762;21.516;2022-12-15T09:39:25;14.77;;;8.95;;
75486;SDS011;65009;44.762;21.516;2022-12-15T09:41:53;9.10;;;8.18;;
75486;SDS011;65009;44.762;21.516;2022-12-15T09:44:20;18.10;;;9.98;;
75486;SDS011;65009;44.762;21.516;2022-12-15T09:52:17;13.57;;;8.02;;
75486;SDS011;65009;44.762;21.516;2022-12-15T09:54:44;15.00;;;8.43;;
75486;SDS011;65009;44.762;21.516;2022-12-15T09:57:17;17.45;;;10.48;;
75486;SDS011;65009;44.762;21.516;2022-12-15T10:02:27;7.60;;;6.53;;
75486;SDS011;65009;44.762;21.516;2022-12-15T10:07:43;9.43;;;8.43;;
75486;SDS011;65009;44.762;21.516;2022-12-15T10:10:29;9.70;;;7.75;;
75486;SDS011;65009;44.762;21.516;2022-12-15T10:12:57;8.52;;;7.28;;
75486;SDS011;65009;44.762;21.516;2022-12-15T10:15:26;6.10;;;5.50;;
75486;SDS011;65009;44.762;21.516;2022-12-15T10:20:22;6.68;;;5.95;;
75486;SDS011;65009;44.762;21.516;2022-12-15T10:22:50;6.80;;;5.93;;
75486;SDS011;65009;44.762;21.516;2022-12-15T10:30:27;40.47;;;23.00;;
75486;SDS011;65009;44.762;21.516;2022-12-15T10:33:00;5.68;;;5.15;;
75486;SDS011;65009;44.762;21.516;2022-12-15T10:35:31;7.47;;;6.53;;
75486;SDS011;65009;44.762;21.516;2022-12-15T10:37:58;12.82;;;8.65;;
75486;SDS011;65009;44.762;21.516;2022-12-15T10:40:41;9.93;;;8.40;;
75486;SDS011;65009;44.762;21.516;2022-12-15T10:43:12;6.45;;;5.72;;
75486;SDS011;65009;44.762;21.516;2022-12-15T10:45:39;4.95;;;4.45;;
75486;SDS011;65009;44.762;21.516;2022-12-15T10:48:09;9.00;;;5.97;;
75486;SDS011;65009;44.762;21.516;2022-12-15T10:50:42;5.85;;;5.25;;
75486;SDS011;65009;44.762;21.516;2022-12-15T10:53:08;7.45;;;6.35;;
75486;SDS011;65009;44.762;21.516;2022-12-15T10:55:58;6.82;;;5.55;;
75486;SDS011;65009;44.762;21.516;2022-12-15T10:58:27;14.25;;;8.85;;
75486;SDS011;65009;44.762;21.516;2022-12-15T11:01:07;8.70;;;6.80;;
75486;SDS011;65009;44.762;21.516;2022-12-15T11:03:36;4.60;;;4.20;;
75486;SDS011;65009;44.762;21.516;2022-12-15T11:06:07;4.80;;;4.18;;
75486;SDS011;65009;44.762;21.516;2022-12-15T11:08:35;10.98;;;7.30;;
75486;SDS011;65009;44.762;21.516;2022-12-15T11:11:01;14.50;;;8.55;;
75486;SDS011;65009;44.762;21.516;2022-12-15T11:14:05;10.88;;;7.68;;
75486;SDS011;65009;44.762;21.516;2022-12-15T11:16:39;14.93;;;9.45;;
75486;SDS011;65009;44.762;21.516;2022-12-15T11:19:12;7.70;;;5.47;;
75486;SDS011;65009;44.762;21.516;2022-12-15T11:21:47;10.48;;;7.28;;
75486;SDS011;65009;44.762;21.516;2022-12-15T11:24:14;8.10;;;5.90;;
75486;SDS011;65009;44.762;21.516;2022-12-15T11:29:27;4.72;;;4.30;;
75486;SDS011;65009;44.762;21.516;2022-12-15T11:31:54;4.53;;;3.75;;
75486;SDS011;65009;44.762;21.516;2022-12-15T11:34:22;8.70;;;5.50;;
75486;SDS011;65009;44.762;21.516;2022-12-15T11:36:56;7.82;;;7.10;;
75486;SDS011;65009;44.762;21.516;2022-12-15T11:50:24;6.93;;;6.15;;
75486;SDS011;65009;44.762;21.516;2022-12-15T11:55:22;9.73;;;8.05;;
75486;SDS011;65009;44.762;21.516;2022-12-15T12:00:38;8.95;;;7.93;;
75486;SDS011;65009;44.762;21.516;2022-12-15T12:08:31;6.22;;;5.10;;
75486;SDS011;65009;44.762;21.516;2022-12-15T12:19:00;13.68;;;9.93;;
75486;SDS011;65009;44.762;21.516;2022-12-15T12:21:28;8.30;;;7.05;;
75486;SDS011;65009;44.762;21.516;2022-12-15T12:24:00;7.22;;;6.63;;
75486;SDS011;65009;44.762;21.516;2022-12-15T12:26:30;6.88;;;6.22;;
75486;SDS011;65009;44.762;21.516;2022-12-15T12:31:34;9.15;;;8.25;;
75486;SDS011;65009;44.762;21.516;2022-12-15T12:34:07;6.57;;;6.07;;
75486;SDS011;65009;44.762;21.516;2022-12-15T12:36:37;8.63;;;7.75;;
75486;SDS011;65009;44.762;21.516;2022-12-15T12:39:03;6.95;;;6.35;;
75486;SDS011;65009;44.762;21.516;2022-12-15T12:41:33;7.97;;;7.18;;
75486;SDS011;65009;44.762;21.516;2022-12-15T12:44:03;8.10;;;5.68;;
75486;SDS011;65009;44.762;21.516;2022-12-15T12:46:35;12.43;;;10.75;;
75486;SDS011;65009;44.762;21.516;2022-12-15T12:49:05;13.77;;;11.50;;
75486;SDS011;65009;44.762;21.516;2022-12-15T12:51:35;6.85;;;5.72;;
75486;SDS011;65009;44.762;21.516;2022-12-15T12:54:04;23.52;;;13.35;;
75486;SDS011;65009;44.762;21.516;2022-12-15T12:56:48;5.65;;;3.80;;
75486;SDS011;65009;44.762;21.516;2022-12-15T13:01:53;22.00;;;14.52;;
75486;SDS011;65009;44.762;21.516;2022-12-15T13:07:04;27.55;;;17.55;;
75486;SDS011;65009;44.762;21.516;2022-12-15T13:09:38;17.92;;;11.82;;
75486;SDS011;65009;44.762;21.516;2022-12-15T13:12:31;13.55;;;10.55;;
75486;SDS011;65009;44.762;21.516;2022-12-15T13:14:52;17.63;;;11.85;;
75486;SDS011;65009;44.762;21.516;2022-12-15T13:22:27;8.68;;;5.22;;
75486;SDS011;65009;44.762;21.516;2022-12-15T13:24:55;7.63;;;4.30;;
75486;SDS011;65009;44.762;21.516;2022-12-15T13:27:21;11.93;;;6.57;;
75486;SDS011;65009;44.762;21.516;2022-12-15T13:29:53;8.82;;;8.02;;
75486;SDS011;65009;44.762;21.516;2022-12-15T13:33:12;11.77;;;9.57;;
75486;SDS011;65009;44.762;21.516;2022-12-15T13:43:29;14.30;;;9.13;;
75486;SDS011;65009;44.762;21.516;2022-12-15T13:49:04;13.45;;;9.93;;
75486;SDS011;65009;44.762;21.516;2022-12-15T13:51:05;11.07;;;8.63;;
75486;SDS011;65009;44.762;21.516;2022-12-15T13:53:42;12.77;;;8.20;;
75486;SDS011;65009;44.762;21.516;2022-12-15T13:58:39;29.60;;;17.75;;
75486;SDS011;65009;44.762;21.516;2022-12-15T14:01:16;25.85;;;15.02;;
75486;SDS011;65009;44.762;21.516;2022-12-15T14:06:30;37.47;;;19.60;;
75486;SDS011;65009;44.762;21.516;2022-12-15T14:08:58;27.77;;;16.08;;
75486;SDS011;65009;44.762;21.516;2022-12-15T14:11:25;24.10;;;15.60;;
75486;SDS011;65009;44.762;21.516;2022-12-15T14:13:58;29.45;;;17.42;;
75486;SDS011;65009;44.762;21.516;2022-12-15T14:16:24;22.83;;;15.20;;
75486;SDS011;65009;44.762;21.516;2022-12-15T14:21:29;40.10;;;22.77;;
75486;SDS011;65009;44.762;21.516;2022-12-15T14:23:56;40.30;;;25.30;;
75486;SDS011;65009;44.762;21.516;2022-12-15T14:26:25;37.60;;;25.83;;
75486;SDS011;65009;44.762;21.516;2022-12-15T14:29:02;49.97;;;27.03;;
75486;SDS011;65009;44.762;21.516;2022-12-15T14:31:29;43.00;;;26.10;;
75486;SDS011;65009;44.762;21.516;2022-12-15T14:34:02;71.83;;;36.03;;
75486;SDS011;65009;44.762;21.516;2022-12-15T14:36:30;57.30;;;33.03;;
75486;SDS011;65009;44.762;21.516;2022-12-15T14:39:18;56.57;;;35.63;;
75486;SDS011;65009;44.762;21.516;2022-12-15T14:41:44;24.47;;;15.37;;
75486;SDS011;65009;44.762;21.516;2022-12-15T14:44:14;23.17;;;15.07;;
75486;SDS011;65009;44.762;21.516;2022-12-15T14:46:47;26.90;;;16.20;;
75486;SDS011;65009;44.762;21.516;2022-12-15T14:49:18;34.83;;;18.70;;
75486;SDS011;65009;44.762;21.516;2022-12-15T14:51:45;38.55;;;23.90;;
75486;SDS011;65009;44.762;21.516;2022-12-15T14:56:58;43.10;;;27.07;;
75486;SDS011;65009;44.762;21.516;2022-12-15T14:59:28;30.93;;;20.20;;
75486;SDS011;65009;44.762;21.516;2022-12-15T15:02:08;37.47;;;22.87;;
75486;SDS011;65009;44.762;21.516;2022-12-15T15:04:37;34.17;;;21.85;;
75486;SDS011;65009;44.762;21.516;2022-12-15T15:07:04;31.50;;;20.07;;
75486;SDS011;65009;44.762;21.516;2022-12-15T15:09:38;25.83;;;15.23;;
75486;SDS011;65009;44.762;21.516;2022-12-15T15:14:41;40.77;;;23.67;;
75486;SDS011;65009;44.762;21.516;2022-12-15T15:22:43;34.10;;;20.83;;
75486;SDS011;65009;44.762;21.516;2022-12-15T15:27:44;38.20;;;23.77;;
75486;SDS011;65009;44.762;21.516;2022-12-15T15:32:50;63.77;;;39.30;;
75486;SDS011;65009;44.762;21.516;2022-12-15T15:35:16;38.83;;;23.40;;
75486;SDS011;65009;44.762;21.516;2022-12-15T15:37:44;44.70;;;25.77;;
75486;SDS011;65009;44.762;21.516;2022-12-15T15:40:11;54.33;;;29.67;;
75486;SDS011;65009;44.762;21.516;2022-12-15T15:42:38;61.07;;;34.40;;
75486;SDS011;65009;44.762;21.516;2022-12-15T15:45:08;55.33;;;30.70;;
75486;SDS011;65009;44.762;21.516;2022-12-15T15:47:37;52.97;;;26.70;;
75486;SDS011;65009;44.762;21.516;2022-12-15T15:50:04;47.77;;;28.40;;
75486;SDS011;65009;44.762;21.516;2022-12-15T15:52:30;66.73;;;36.60;;
75486;SDS011;65009;44.762;21.516;2022-12-15T15:54:58;79.93;;;41.90;;
75486;SDS011;65009;44.762;21.516;2022-12-15T15:57:24;58.10;;;30.17;;
75486;SDS011;65009;44.762;21.516;2022-12-15T15:59:50;112.57;;;56.90;;
75486;SDS011;65009;44.762;21.516;2022-12-15T16:02:17;79.27;;;41.67;;
75486;SDS011;65009;44.762;21.516;2022-12-15T16:04:43;52.33;;;28.03;;
75486;SDS011;65009;44.762;21.516;2022-12-15T16:07:19;29.93;;;14.13;;
75486;SDS011;65009;44.762;21.516;2022-12-15T16:09:47;52.90;;;18.83;;
75486;SDS011;65009;44.762;21.516;2022-12-15T16:12:22;49.97;;;22.43;;
75486;SDS011;65009;44.762;21.516;2022-12-15T16:14:51;53.80;;;25.83;;
75486;SDS011;65009;44.762;21.516;2022-12-15T16:17:18;38.90;;;16.53;;
75486;SDS011;65009;44.762;21.516;2022-12-15T16:19:44;33.73;;;15.27;;
75486;SDS011;65009;44.762;21.516;2022-12-15T16:22:14;28.97;;;15.97;;
75486;SDS011;65009;44.762;21.516;2022-12-15T16:24:41;29.77;;;18.37;;
75486;SDS011;65009;44.762;21.516;2022-12-15T16:27:08;29.00;;;16.97;;
75486;SDS011;65009;44.762;21.516;2022-12-15T16:29:35;42.63;;;23.87;;
75486;SDS011;65009;44.762;21.516;2022-12-15T16:32:03;35.10;;;20.20;;
75486;SDS011;65009;44.762;21.516;2022-12-15T16:34:29;38.93;;;21.80;;
75486;SDS011;65009;44.762;21.516;2022-12-15T16:36:55;36.63;;;20.40;;
75486;SDS011;65009;44.762;21.516;2022-12-15T16:39:26;37.10;;;20.83;;
75486;SDS011;65009;44.762;21.516;2022-12-15T16:41:53;44.08;;;23.55;;
75486;SDS011;65009;44.762;21.516;2022-12-15T16:44:20;49.83;;;25.40;;
75486;SDS011;65009;44.762;21.516;2022-12-15T16:46:46;41.27;;;24.00;;
75486;SDS011;65009;44.762;21.516;2022-12-15T16:49:12;53.03;;;29.30;;